Time;durP1;ratioP1;P1;durP2;ratioP2;P2;SDS_P1;SDS_P2;PMS_P1;PMS_P2;Temp;Humidity;BMP_temperature;BMP_pressure;BME280_temperature;BME280_humidity;BME280_pressure;Samples;Min_cycle;Max_cycle;Signal;HPM_P1;HPM_P2
2023/01/30 00:01:45;;;;;;;42.55;14.90;;;1.80;99.90;;;;;;5032509;28;20393;-70
2023/01/30 00:04:12;;;;;;;37.38;13.52;;;1.70;99.90;;;;;;5033421;28;20021;-70
2023/01/30 00:06:39;;;;;;;41.20;14.77;;;1.70;99.90;;;;;;5032475;28;20031;-70
2023/01/30 00:09:04;;;;;;;45.67;15.30;;;1.80;99.90;;;;;;5033753;28;20037;-70
2023/01/30 00:11:32;;;;;;;37.90;13.10;;;2.00;99.90;;;;;;5032335;28;20033;-70
2023/01/30 00:13:58;;;;;;;38.13;13.77;;;2.20;99.90;;;;;;5032323;28;20038;-70
2023/01/30 00:16:24;;;;;;;33.10;13.82;;;2.20;99.90;;;;;;5032306;28;20072;-70
2023/01/30 00:18:49;;;;;;;41.10;14.48;;;2.40;99.90;;;;;;5032288;28;20021;-70
2023/01/30 00:21:16;;;;;;;37.30;13.98;;;2.30;99.90;;;;;;5032269;28;20029;-70
2023/01/30 00:23:41;;;;;;;38.55;14.15;;;2.30;99.90;;;;;;5032352;28;20071;-70
2023/01/30 00:26:08;;;;;;;37.83;13.50;;;2.20;99.90;;;;;;5031530;28;20025;-70
2023/01/30 00:28:35;;;;;;;34.95;12.65;;;2.40;99.90;;;;;;5032291;28;20113;-70
2023/01/30 00:31:01;;;;;;;37.78;13.35;;;2.50;99.90;;;;;;5032365;28;20056;-70
2023/01/30 00:33:27;;;;;;;38.20;13.30;;;2.50;99.90;;;;;;5044329;22;20030;-69
2023/01/30 00:35:54;;;;;;;39.90;14.02;;;2.40;99.90;;;;;;5012337;28;20117;-69
2023/01/30 00:38:20;;;;;;;40.63;13.20;;;2.40;99.90;;;;;;5029207;28;20108;-70
2023/01/30 00:40:46;;;;;;;32.83;13.48;;;2.40;99.90;;;;;;5013955;28;20061;-70
2023/01/30 00:48:45;;;;;;;31.70;11.73;;;2.50;99.90;;;;;;5013846;28;20037;-70
2023/01/30 00:51:10;;;;;;;37.55;13.27;;;2.70;99.90;;;;;;5029915;28;20022;-69
2023/01/30 00:53:36;;;;;;;38.30;13.77;;;2.60;99.90;;;;;;5013607;28;20053;-70
2023/01/30 00:56:02;;;;;;;35.05;14.02;;;2.50;99.90;;;;;;5013760;28;20030;-70
2023/01/30 00:58:27;;;;;;;39.95;12.95;;;2.50;99.90;;;;;;5028779;28;20080;-70
2023/01/30 01:00:54;;;;;;;35.28;11.63;;;2.50;99.90;;;;;;5012272;28;20106;-70
2023/01/30 01:03:20;;;;;;;38.80;12.05;;;2.50;99.90;;;;;;5028668;28;20022;-70
2023/01/30 01:05:45;;;;;;;34.65;13.18;;;2.60;99.90;;;;;;5029487;28;20480;-70
2023/01/30 01:08:11;;;;;;;33.90;13.00;;;2.60;99.90;;;;;;5028639;28;20134;-70
2023/01/30 01:10:37;;;;;;;36.63;12.50;;;2.70;99.90;;;;;;5028848;28;20034;-70
2023/01/30 01:13:03;;;;;;;36.13;12.15;;;2.60;99.90;;;;;;5029466;28;20054;-70
2023/01/30 01:15:29;;;;;;;33.03;12.43;;;2.60;99.90;;;;;;5028681;28;20116;-69
2023/01/30 01:17:54;;;;;;;37.17;14.05;;;2.50;99.90;;;;;;5028846;28;20109;-69
2023/01/30 01:20:21;;;;;;;32.97;12.75;;;2.30;99.90;;;;;;5028521;28;20025;-69
2023/01/30 01:22:49;;;;;;;37.40;13.52;;;2.30;99.90;;;;;;5028307;28;20061;-70
2023/01/30 01:25:15;;;;;;;35.88;12.23;;;2.30;99.90;;;;;;5029396;28;20084;-69
2023/01/30 01:27:41;;;;;;;28.52;11.25;;;2.30;99.90;;;;;;5013167;28;20026;-69
2023/01/30 01:30:07;;;;;;;32.50;11.90;;;2.30;99.90;;;;;;5013436;28;20053;-69
2023/01/30 01:32:33;;;;;;;32.80;12.25;;;2.30;99.90;;;;;;5028808;28;20034;-69
2023/01/30 01:34:59;;;;;;;33.88;12.70;;;2.30;99.90;;;;;;5028375;28;20168;-69
2023/01/30 01:37:24;;;;;;;33.03;11.88;;;2.40;99.90;;;;;;5031349;28;20029;-69
2023/01/30 01:42:37;;;;;;;32.22;11.93;;;2.60;99.90;;;;;;5017162;28;20029;-70
2023/01/30 01:45:11;;;;;;;33.88;12.18;;;2.60;99.90;;;;;;5031763;28;20036;-70
2023/01/30 01:47:59;;;;;;;32.20;11.43;;;2.70;99.90;;;;;;5016497;28;20026;-72
2023/01/30 01:50:39;;;;;;;25.70;10.55;;;2.70;99.90;;;;;;5014659;28;20404;-70
2023/01/30 01:53:06;;;;;;;29.50;11.57;;;2.70;99.90;;;;;;5017018;28;20479;-70
2023/01/30 01:55:31;;;;;;;29.90;11.68;;;2.80;99.90;;;;;;5016305;28;20461;-72
2023/01/30 01:58:04;;;;;;;29.25;12.05;;;2.80;99.90;;;;;;5032525;28;20022;-72
2023/01/30 02:00:31;;;;;;;33.78;11.40;;;2.70;99.90;;;;;;5015147;28;20025;-73
2023/01/30 02:03:00;;;;;;;26.83;11.20;;;2.60;99.90;;;;;;5031564;28;20033;-71
2023/01/30 02:05:37;;;;;;;32.72;11.07;;;2.60;99.90;;;;;;5016256;28;20493;-70
2023/01/30 02:08:13;;;;;;;27.42;11.00;;;2.60;99.90;;;;;;5032200;28;20053;-70
2023/01/30 02:10:47;;;;;;;28.42;11.48;;;2.70;99.90;;;;;;5031385;28;20037;-70
2023/01/30 02:13:12;;;;;;;31.90;10.18;;;2.80;99.90;;;;;;5016012;28;20030;-70
2023/01/30 02:15:38;;;;;;;26.30;9.75;;;2.80;99.90;;;;;;5033307;28;20036;-70
2023/01/30 02:18:04;;;;;;;27.27;11.70;;;2.80;99.90;;;;;;5014830;28;20056;-70
2023/01/30 02:20:47;;;;;;;26.63;10.13;;;2.80;99.90;;;;;;5031988;28;20061;-70
2023/01/30 02:23:37;;;;;;;29.23;10.13;;;2.80;99.90;;;;;;5015459;28;20014;-69
2023/01/30 02:26:21;;;;;;;30.73;11.13;;;2.80;99.90;;;;;;5014617;28;20061;-70
2023/01/30 02:28:46;;;;;;;27.10;10.60;;;2.70;99.90;;;;;;5014620;28;20030;-70
2023/01/30 02:31:32;;;;;;;32.33;10.82;;;2.70;99.90;;;;;;5015060;28;20499;-70
2023/01/30 02:34:22;;;;;;;25.20;10.15;;;2.70;99.90;;;;;;5031068;28;20129;-70
2023/01/30 02:37:13;;;;;;;26.05;10.68;;;2.80;99.90;;;;;;5014946;28;20025;-70
2023/01/30 02:39:58;;;;;;;24.33;9.25;;;2.70;99.90;;;;;;5014943;28;20049;-70
2023/01/30 02:42:51;;;;;;;24.88;9.80;;;2.80;99.90;;;;;;5014249;28;20029;-70
2023/01/30 02:45:40;;;;;;;28.42;10.23;;;2.80;99.90;;;;;;5015517;28;20026;-70
2023/01/30 02:48:10;;;;;;;24.58;10.00;;;2.80;99.90;;;;;;5014304;28;20124;-71
2023/01/30 02:50:46;;;;;;;29.58;10.48;;;2.80;99.90;;;;;;5015437;28;20034;-71
2023/01/30 02:53:12;;;;;;;28.00;11.25;;;2.90;99.90;;;;;;5030782;28;20037;-71
2023/01/30 02:55:41;;;;;;;27.48;11.20;;;2.90;99.90;;;;;;5015255;28;20026;-71
2023/01/30 02:58:06;;;;;;;29.63;10.25;;;2.90;99.90;;;;;;5015537;28;20416;-71
2023/01/30 03:01:06;;;;;;;28.92;11.50;;;2.80;99.90;;;;;;5015192;28;20113;-71
2023/01/30 03:03:44;;;;;;;30.27;11.02;;;2.80;99.90;;;;;;4993118;28;20065;-71
2023/01/30 03:06:39;;;;;;;29.02;10.60;;;2.80;99.90;;;;;;5015516;28;20049;-71
2023/01/30 03:09:21;;;;;;;23.92;10.32;;;2.80;99.90;;;;;;5013784;28;20026;-71
2023/01/30 03:12:01;;;;;;;29.48;10.82;;;2.90;99.90;;;;;;5014935;28;20053;-71
2023/01/30 03:14:51;;;;;;;26.98;10.55;;;2.90;99.90;;;;;;5014404;28;20030;-70
2023/01/30 03:17:22;;;;;;;25.60;10.43;;;2.70;99.90;;;;;;5014150;28;20109;-70
2023/01/30 03:19:47;;;;;;;30.70;9.75;;;2.70;99.90;;;;;;5014491;28;20459;-70
2023/01/30 03:22:13;;;;;;;30.05;10.10;;;2.70;99.90;;;;;;5014308;28;20129;-70
2023/01/30 03:24:38;;;;;;;24.30;9.98;;;2.70;99.90;;;;;;5029931;28;20036;-70
2023/01/30 03:27:11;;;;;;;30.33;9.95;;;2.70;99.90;;;;;;5014571;28;20030;-70
2023/01/30 03:29:37;;;;;;;24.67;9.73;;;2.80;99.90;;;;;;5013981;28;20034;-69
2023/01/30 03:32:03;;;;;;;25.73;9.88;;;2.80;99.90;;;;;;5014375;28;20079;-70
2023/01/30 03:34:28;;;;;;;22.52;9.15;;;2.90;99.90;;;;;;5013505;28;20030;-69
2023/01/30 03:36:54;;;;;;;26.90;9.35;;;2.80;99.90;;;;;;5013307;28;20018;-69
2023/01/30 03:39:20;;;;;;;28.92;10.55;;;2.80;99.90;;;;;;5014454;28;20473;-69
2023/01/30 03:41:45;;;;;;;27.83;10.35;;;2.70;99.90;;;;;;5029607;28;20050;-69
2023/01/30 03:44:11;;;;;;;23.10;9.85;;;2.70;99.90;;;;;;5030304;28;20481;-71
2023/01/30 03:46:36;;;;;;;27.05;9.40;;;2.60;99.90;;;;;;5013142;28;20023;-72
2023/01/30 03:49:02;;;;;;;23.67;8.45;;;2.60;99.90;;;;;;5013140;28;20026;-72
2023/01/30 03:51:27;;;;;;;26.05;9.43;;;2.70;99.90;;;;;;5012901;28;20030;-72
2023/01/30 03:53:53;;;;;;;27.42;9.82;;;2.70;99.90;;;;;;5013142;28;20033;-72
2023/01/30 03:56:19;;;;;;;28.13;9.70;;;2.80;99.90;;;;;;5014257;28;20030;-71
2023/01/30 03:58:44;;;;;;;26.92;10.10;;;2.80;99.90;;;;;;5013930;28;20025;-72
2023/01/30 04:01:10;;;;;;;23.90;9.75;;;2.80;99.90;;;;;;5029300;28;20033;-70
2023/01/30 04:03:35;;;;;;;26.30;10.75;;;2.70;99.90;;;;;;5014266;28;20022;-70
2023/01/30 04:06:01;;;;;;;29.58;8.98;;;2.60;99.90;;;;;;5029190;28;20080;-71
2023/01/30 04:08:26;;;;;;;23.02;9.60;;;2.60;99.90;;;;;;5014543;28;20481;-69
2023/01/30 04:10:52;;;;;;;30.55;10.23;;;2.60;99.90;;;;;;5012612;28;20022;-70
2023/01/30 04:13:17;;;;;;;24.40;9.68;;;2.70;99.90;;;;;;5030207;28;20058;-70
2023/01/30 04:15:43;;;;;;;23.25;9.18;;;2.80;99.90;;;;;;5012895;28;20033;-69
2023/01/30 04:18:08;;;;;;;25.73;9.65;;;2.80;99.90;;;;;;5012507;28;20057;-69
2023/01/30 04:20:34;;;;;;;22.27;9.98;;;2.80;99.90;;;;;;5013375;28;20041;-70
2023/01/30 04:23:00;;;;;;;22.48;9.57;;;2.80;99.90;;;;;;5012678;28;20487;-70
2023/01/30 04:25:25;;;;;;;20.38;8.77;;;2.90;99.90;;;;;;5014140;28;20049;-70
2023/01/30 04:27:51;;;;;;;27.42;10.15;;;2.90;99.90;;;;;;5012516;28;20026;-70
2023/01/30 04:30:16;;;;;;;25.65;8.80;;;2.80;99.90;;;;;;5029058;28;20026;-71
2023/01/30 04:32:42;;;;;;;26.38;9.27;;;2.70;99.90;;;;;;5012510;28;20042;-71
2023/01/30 04:35:08;;;;;;;26.70;9.88;;;2.70;99.90;;;;;;5012396;28;20026;-71
2023/01/30 04:37:33;;;;;;;24.73;9.73;;;2.80;99.90;;;;;;5014249;28;20026;-71
2023/01/30 04:39:59;;;;;;;27.88;10.48;;;2.80;99.90;;;;;;5013965;28;20022;-69
2023/01/30 04:42:24;;;;;;;22.00;8.77;;;2.80;99.90;;;;;;5029923;28;20109;-69
2023/01/30 04:44:50;;;;;;;27.38;9.43;;;2.90;99.90;;;;;;5012411;28;20026;-69
2023/01/30 04:47:16;;;;;;;22.90;9.60;;;2.80;99.90;;;;;;5013587;28;20022;-71
2023/01/30 04:49:41;;;;;;;28.60;9.88;;;2.80;99.90;;;;;;5013865;28;20037;-71
2023/01/30 04:52:07;;;;;;;32.70;11.70;;;2.90;99.90;;;;;;5012212;28;20029;-71
2023/01/30 04:54:33;;;;;;;28.83;9.50;;;2.90;99.90;;;;;;5013484;28;20068;-71
2023/01/30 04:56:59;;;;;;;22.60;9.35;;;2.90;99.90;;;;;;5012629;28;20045;-72
2023/01/30 04:59:24;;;;;;;23.85;9.73;;;3.00;99.90;;;;;;5012623;28;20014;-72
2023/01/30 05:01:50;;;;;;;24.05;9.15;;;3.00;99.90;;;;;;5012291;28;20022;-72
2023/01/30 05:04:15;;;;;;;22.77;9.02;;;3.00;99.90;;;;;;5012340;28;20026;-71
2023/01/30 05:06:41;;;;;;;27.42;10.13;;;3.00;99.90;;;;;;5013068;28;20053;-71
2023/01/30 05:09:07;;;;;;;29.02;10.98;;;3.00;99.90;;;;;;5028583;28;20065;-70
2023/01/30 05:11:33;;;;;;;24.48;10.23;;;3.00;99.90;;;;;;5015145;28;20029;-71
2023/01/30 05:13:58;;;;;;;24.60;9.38;;;3.10;99.90;;;;;;5033177;28;20026;-70
2023/01/30 05:16:24;;;;;;;24.35;9.60;;;3.20;99.90;;;;;;5015920;28;20057;-70
2023/01/30 05:18:50;;;;;;;30.60;11.40;;;3.20;99.90;;;;;;5016121;28;20089;-70
2023/01/30 05:21:24;;;;;;;25.38;9.85;;;3.20;99.90;;;;;;5033380;28;20025;-70
2023/01/30 05:23:51;;;;;;;23.20;9.90;;;3.20;99.90;;;;;;5016757;28;20017;-70
2023/01/30 05:26:17;;;;;;;25.58;10.05;;;3.30;99.90;;;;;;5016938;28;20108;-71
2023/01/30 05:28:43;;;;;;;24.40;9.35;;;3.20;99.90;;;;;;5016874;28;20026;-70
2023/01/30 05:31:11;;;;;;;29.05;11.05;;;3.20;99.90;;;;;;5015627;28;20037;-70
2023/01/30 05:33:38;;;;;;;23.33;10.38;;;3.20;99.90;;;;;;5031977;28;20049;-71
2023/01/30 05:36:04;;;;;;;23.98;9.43;;;3.20;99.90;;;;;;5032200;28;20037;-70
2023/01/30 05:38:30;;;;;;;21.50;9.00;;;3.20;99.90;;;;;;5015355;28;20029;-70
2023/01/30 05:41:04;;;;;;;25.33;9.00;;;3.20;99.90;;;;;;5016682;28;20523;-70
2023/01/30 05:43:31;;;;;;;25.25;9.45;;;3.20;99.90;;;;;;5015405;28;20366;-70
2023/01/30 05:45:58;;;;;;;25.08;9.13;;;3.20;99.90;;;;;;5015495;28;20060;-70
2023/01/30 05:48:24;;;;;;;23.23;9.75;;;3.20;99.90;;;;;;5015576;28;20125;-70
2023/01/30 05:50:54;;;;;;;23.65;9.57;;;3.20;99.90;;;;;;5015217;28;20080;-70
2023/01/30 05:53:22;;;;;;;21.98;9.43;;;3.30;99.90;;;;;;5016223;28;20033;-70
2023/01/30 05:55:55;;;;;;;24.17;9.88;;;3.30;99.90;;;;;;5016601;28;20105;-70
2023/01/30 05:58:21;;;;;;;21.10;8.75;;;3.40;99.90;;;;;;5015110;28;20029;-70
2023/01/30 06:00:46;;;;;;;25.15;9.70;;;3.50;99.90;;;;;;5015380;28;20018;-70
2023/01/30 06:03:12;;;;;;;21.33;9.35;;;3.50;99.90;;;;;;5016166;28;20117;-72
2023/01/30 06:05:38;;;;;;;21.33;9.65;;;3.60;99.90;;;;;;5015783;28;20132;-72
2023/01/30 06:08:03;;;;;;;20.77;8.73;;;3.60;99.90;;;;;;5014920;28;20057;-72
2023/01/30 06:10:29;;;;;;;22.25;8.57;;;3.60;99.90;;;;;;5015030;28;20030;-70
2023/01/30 06:12:54;;;;;;;16.33;7.78;;;3.60;99.90;;;;;;5016010;28;20029;-70
2023/01/30 06:15:20;;;;;;;24.58;9.23;;;3.50;99.90;;;;;;5014763;28;20048;-70
2023/01/30 06:17:45;;;;;;;24.45;8.98;;;3.50;99.90;;;;;;5015187;28;20109;-70
2023/01/30 06:20:11;;;;;;;24.65;9.40;;;3.50;99.90;;;;;;5015850;28;20022;-71
2023/01/30 06:22:37;;;;;;;26.23;8.95;;;3.60;99.90;;;;;;5015408;28;20030;-71
2023/01/30 06:25:03;;;;;;;19.63;8.73;;;3.60;99.90;;;;;;5014666;28;20121;-71
2023/01/30 06:27:28;;;;;;;20.88;8.93;;;3.50;99.90;;;;;;5015867;28;20064;-71
2023/01/30 06:29:54;;;;;;;19.90;8.50;;;3.50;99.90;;;;;;5015172;28;20022;-71
2023/01/30 06:32:19;;;;;;;19.17;7.95;;;3.50;99.90;;;;;;5015611;28;20033;-71
2023/01/30 06:34:45;;;;;;;20.48;7.85;;;3.60;99.90;;;;;;5014970;28;20113;-72
2023/01/30 06:37:10;;;;;;;21.60;8.82;;;3.50;99.90;;;;;;5015967;28;20461;-71
2023/01/30 06:39:36;;;;;;;20.17;8.85;;;3.40;99.90;;;;;;5014376;28;20040;-71
2023/01/30 06:42:01;;;;;;;23.75;9.40;;;3.40;99.90;;;;;;5015554;28;20026;-70
2023/01/30 06:44:27;;;;;;;18.42;8.75;;;3.40;99.90;;;;;;5015538;28;20030;-70
2023/01/30 06:46:52;;;;;;;18.50;9.02;;;3.40;99.90;;;;;;5015263;28;20430;-70
2023/01/30 06:49:18;;;;;;;24.73;9.70;;;3.50;99.90;;;;;;5015665;28;20139;-70
2023/01/30 06:51:43;;;;;;;20.98;8.82;;;3.50;99.90;;;;;;5014358;28;20120;-69
2023/01/30 06:54:09;;;;;;;19.40;8.35;;;3.50;99.90;;;;;;5014145;28;20036;-70
2023/01/30 06:56:34;;;;;;;21.35;9.48;;;3.40;99.90;;;;;;5014953;28;20116;-69
2023/01/30 06:59:00;;;;;;;21.73;8.65;;;3.40;99.90;;;;;;5015269;28;20113;-69
2023/01/30 07:01:26;;;;;;;22.17;7.90;;;3.40;99.90;;;;;;5014902;28;20021;-70
2023/01/30 07:03:51;;;;;;;18.65;8.07;;;3.40;99.90;;;;;;5014772;28;20030;-71
2023/01/30 07:06:17;;;;;;;25.23;9.80;;;3.40;99.90;;;;;;5013807;28;20026;-72
2023/01/30 07:08:43;;;;;;;19.27;9.02;;;3.30;99.90;;;;;;5015670;28;20037;-72
2023/01/30 07:11:09;;;;;;;23.45;9.93;;;3.40;99.90;;;;;;5015251;28;20049;-69
2023/01/30 07:13:34;;;;;;;19.40;8.98;;;3.50;99.90;;;;;;5014259;28;20465;-69
2023/01/30 07:16:00;;;;;;;21.42;8.80;;;3.50;99.90;;;;;;5014391;28;20026;-69
2023/01/30 07:18:25;;;;;;;21.02;9.07;;;3.50;99.90;;;;;;5015221;28;20059;-70
2023/01/30 07:20:51;;;;;;;17.80;8.00;;;3.60;99.90;;;;;;5013713;28;20113;-70
2023/01/30 07:23:16;;;;;;;21.08;8.45;;;3.60;99.90;;;;;;5013530;28;20029;-70
2023/01/30 07:25:42;;;;;;;21.48;8.43;;;3.70;99.90;;;;;;5013850;28;20033;-70
2023/01/30 07:28:08;;;;;;;18.20;8.68;;;3.70;99.90;;;;;;5014907;28;20100;-70
2023/01/30 07:30:34;;;;;;;16.83;7.60;;;3.80;99.90;;;;;;5014742;28;20033;-71
2023/01/30 07:33:02;;;;;;;15.85;7.05;;;3.70;99.90;;;;;;5014793;28;20029;-69
2023/01/30 07:35:30;;;;;;;18.13;7.82;;;3.80;99.90;;;;;;5014512;28;20054;-69
2023/01/30 07:37:56;;;;;;;19.42;7.95;;;3.70;99.90;;;;;;5014916;28;20054;-69
2023/01/30 07:40:22;;;;;;;16.75;7.18;;;3.70;99.90;;;;;;5013514;28;20036;-70
2023/01/30 07:43:04;;;;;;;14.95;7.20;;;3.80;99.90;;;;;;5014440;28;20030;-70
2023/01/30 07:45:39;;;;;;;16.92;8.13;;;3.80;99.90;;;;;;5013073;28;20054;-70
2023/01/30 07:48:05;;;;;;;14.25;7.00;;;3.80;99.90;;;;;;5014251;28;20030;-70
2023/01/30 07:50:31;;;;;;;14.32;6.97;;;3.80;99.90;;;;;;5012982;28;20478;-70
2023/01/30 07:52:57;;;;;;;20.10;8.13;;;3.70;99.90;;;;;;5013987;28;20113;-69
2023/01/30 07:55:22;;;;;;;12.45;6.55;;;3.60;99.90;;;;;;5012843;28;20030;-69
2023/01/30 07:57:48;;;;;;;14.60;7.22;;;3.70;99.90;;;;;;5012935;28;20028;-69
2023/01/30 08:00:14;;;;;;;20.88;6.78;;;3.70;99.90;;;;;;5014456;28;20017;-70
2023/01/30 08:02:40;;;;;;;12.40;5.50;;;3.70;99.90;;;;;;5014076;28;20025;-69
2023/01/30 08:05:05;;;;;;;15.60;6.78;;;3.70;99.90;;;;;;5014611;28;20149;-69
2023/01/30 08:07:31;;;;;;;14.38;6.05;;;3.60;99.90;;;;;;5012765;28;20033;-69
2023/01/30 08:09:56;;;;;;;12.60;6.28;;;3.60;99.90;;;;;;5013586;28;20026;-70
2023/01/30 08:12:22;;;;;;;13.48;6.13;;;3.60;99.90;;;;;;5014169;28;20030;-70
2023/01/30 08:14:47;;;;;;;11.18;5.35;;;3.60;99.90;;;;;;5012865;28;20032;-69
2023/01/30 08:17:13;;;;;;;11.88;6.18;;;3.60;99.90;;;;;;5013614;28;20029;-69
2023/01/30 08:19:39;;;;;;;11.50;5.80;;;3.50;99.90;;;;;;5013902;28;20018;-69
2023/01/30 08:22:04;;;;;;;12.75;6.65;;;3.60;99.90;;;;;;5014042;28;20025;-70
2023/01/30 08:24:30;;;;;;;9.57;5.38;;;3.60;99.90;;;;;;5013772;28;20033;-68
2023/01/30 08:26:55;;;;;;;11.50;6.07;;;3.60;99.90;;;;;;5012485;28;20113;-69
2023/01/30 08:29:21;;;;;;;11.63;5.43;;;3.70;99.90;;;;;;5012472;28;20026;-70
2023/01/30 08:31:46;;;;;;;11.68;5.03;;;3.60;99.90;;;;;;5012423;28;20040;-71
2023/01/30 08:34:12;;;;;;;11.45;5.18;;;3.60;99.90;;;;;;5014200;28;20084;-70
2023/01/30 08:36:37;;;;;;;8.63;4.18;;;3.50;99.90;;;;;;5013277;28;20101;-69
2023/01/30 08:39:04;;;;;;;10.40;5.15;;;3.50;99.90;;;;;;5012689;28;20113;-69
2023/01/30 08:41:30;;;;;;;10.18;4.68;;;3.50;99.90;;;;;;5013797;28;20026;-69
2023/01/30 08:43:55;;;;;;;9.88;4.65;;;3.40;99.90;;;;;;5013533;28;20018;-69
2023/01/30 08:46:21;;;;;;;7.63;3.88;;;3.50;99.90;;;;;;5014003;28;20028;-69
2023/01/30 08:48:47;;;;;;;8.35;3.58;;;3.50;99.90;;;;;;5016782;28;20030;-69
2023/01/30 08:51:13;;;;;;;9.35;4.72;;;3.50;99.90;;;;;;5017647;28;20025;-68
2023/01/30 08:53:38;;;;;;;7.57;3.85;;;3.50;99.90;;;;;;5017481;28;20033;-69
2023/01/30 08:56:04;;;;;;;8.57;4.22;;;3.50;99.90;;;;;;5016252;28;20022;-69
2023/01/30 08:58:30;;;;;;;11.18;4.20;;;3.50;99.90;;;;;;5017282;28;20021;-69
2023/01/30 09:00:55;;;;;;;7.55;4.05;;;3.60;99.90;;;;;;5016493;28;20030;-69
2023/01/30 09:03:21;;;;;;;5.90;3.60;;;3.60;99.90;;;;;;5017846;28;20068;-69
2023/01/30 09:05:52;;;;;;;9.90;3.95;;;3.50;99.90;;;;;;5017285;28;20030;-70
2023/01/30 09:08:17;;;;;;;8.00;3.90;;;3.60;99.90;;;;;;5016121;28;20037;-70
2023/01/30 09:10:43;;;;;;;6.82;3.85;;;3.60;99.90;;;;;;5015888;28;20296;-70
2023/01/30 09:13:09;;;;;;;9.48;3.92;;;3.60;99.90;;;;;;5015903;28;20045;-70
2023/01/30 09:15:34;;;;;;;4.38;2.85;;;3.60;99.90;;;;;;5016734;28;20025;-70
2023/01/30 09:18:00;;;;;;;5.63;3.42;;;3.60;99.90;;;;;;5015758;28;20022;-70
2023/01/30 09:20:25;;;;;;;6.55;3.58;;;3.60;99.90;;;;;;5016186;28;20022;-70
2023/01/30 09:22:51;;;;;;;9.50;3.70;;;3.70;99.90;;;;;;5017275;28;20022;-71
2023/01/30 09:25:16;;;;;;;6.03;3.28;;;3.70;99.90;;;;;;5015654;28;20521;-70
2023/01/30 09:27:43;;;;;;;8.10;3.35;;;3.70;99.90;;;;;;5015620;28;20088;-70
2023/01/30 09:30:09;;;;;;;6.30;2.95;;;3.60;99.90;;;;;;5016964;28;20393;-70
2023/01/30 09:32:36;;;;;;;7.43;3.03;;;3.60;99.90;;;;;;5016653;28;20037;-72
2023/01/30 09:35:02;;;;;;;6.10;2.47;;;3.60;99.90;;;;;;5015531;28;20118;-71
2023/01/30 09:37:28;;;;;;;7.82;3.75;;;3.70;99.90;;;;;;5016707;28;20030;-71
2023/01/30 09:39:53;;;;;;;9.80;3.88;;;3.70;99.90;;;;;;5016690;28;20022;-71
2023/01/30 09:42:41;;;;;;;8.77;3.30;;;3.70;99.90;;;;;;5015377;28;20026;-71
2023/01/30 09:45:29;;;;;;;7.60;2.80;;;3.70;99.90;;;;;;5016647;28;20099;-71
2023/01/30 09:47:54;;;;;;;5.28;3.08;;;3.70;99.90;;;;;;5016506;28;20026;-70
2023/01/30 09:50:44;;;;;;;5.70;2.83;;;3.60;99.90;;;;;;5015436;28;20030;-70
2023/01/30 09:53:17;;;;;;;5.25;2.92;;;3.50;99.90;;;;;;5016607;28;20030;-71
2023/01/30 09:55:45;;;;;;;5.03;2.38;;;3.50;99.90;;;;;;5015149;28;20073;-71
2023/01/30 09:58:20;;;;;;;6.22;2.80;;;3.50;99.90;;;;;;5015984;28;20018;-71
2023/01/30 10:00:48;;;;;;;3.97;2.47;;;3.50;99.90;;;;;;5015054;28;20022;-71
2023/01/30 10:03:17;;;;;;;4.30;2.60;;;3.50;99.90;;;;;;5014912;28;20022;-71
2023/01/30 10:05:50;;;;;;;4.13;2.33;;;3.60;99.90;;;;;;5016335;28;20093;-71
2023/01/30 10:09:09;;;;;;;3.75;2.25;;;3.60;99.90;;;;;;5016118;28;20022;-71
2023/01/30 10:11:52;;;;;;;4.82;2.60;;;3.60;99.90;;;;;;4955720;29;20143;-71
2023/01/30 10:14:44;;;;;;;6.10;3.05;;;3.70;99.90;;;;;;4955751;29;20045;-71
2023/01/30 10:17:36;;;;;;;7.03;3.40;;;3.70;99.90;;;;;;4939559;29;20023;-71
2023/01/30 10:20:30;;;;;;;5.05;2.72;;;3.70;99.90;;;;;;4955611;29;20126;-71
2023/01/30 10:23:21;;;;;;;4.78;2.70;;;3.80;99.90;;;;;;4955545;29;20027;-70
2023/01/30 10:25:54;;;;;;;5.15;2.95;;;3.90;99.90;;;;;;4956125;29;20120;-70
2023/01/30 10:28:22;;;;;;;4.30;2.35;;;3.90;99.90;;;;;;4955242;29;20023;-70
2023/01/30 10:30:51;;;;;;;9.43;2.67;;;3.90;99.90;;;;;;4955288;29;20042;-70
2023/01/30 10:33:44;;;;;;;3.88;2.45;;;4.10;99.90;;;;;;4938832;29;20087;-69
2023/01/30 10:36:31;;;;;;;5.32;3.03;;;4.30;99.90;;;;;;4955177;29;20114;-70
2023/01/30 10:38:59;;;;;;;5.90;2.50;;;4.50;99.90;;;;;;4955560;29;20031;-70
2023/01/30 10:41:35;;;;;;;4.18;2.22;;;4.60;99.90;;;;;;4939672;29;20128;-70
2023/01/30 10:44:12;;;;;;;5.13;2.42;;;4.60;99.90;;;;;;4939355;29;20054;-72
2023/01/30 10:47:17;;;;;;;2.95;2.05;;;4.60;99.90;;;;;;5009927;28;20034;-70
2023/01/30 10:49:53;;;;;;;3.90;2.28;;;4.60;99.90;;;;;;5015709;28;20092;-70
2023/01/30 10:52:29;;;;;;;3.67;2.00;;;4.60;99.90;;;;;;5013959;28;20026;-70
2023/01/30 10:55:16;;;;;;;3.88;2.38;;;4.50;99.90;;;;;;5014840;28;20026;-70
2023/01/30 10:57:50;;;;;;;6.78;2.40;;;4.70;99.90;;;;;;5015159;28;20026;-70
2023/01/30 11:00:26;;;;;;;10.82;2.83;;;4.70;99.90;;;;;;5014022;28;20026;-70
2023/01/30 11:03:22;;;;;;;5.38;2.90;;;4.80;99.90;;;;;;5013841;28;20028;-70
2023/01/30 11:06:10;;;;;;;5.60;3.22;;;4.90;99.90;;;;;;5013814;28;20034;-70
2023/01/30 11:08:36;;;;;;;5.32;3.05;;;4.90;99.90;;;;;;5014076;28;20025;-70
2023/01/30 11:11:26;;;;;;;5.07;2.65;;;5.00;99.90;;;;;;5013792;28;20140;-70
2023/01/30 11:14:03;;;;;;;10.63;3.35;;;5.10;99.90;;;;;;5014454;28;20461;-70
2023/01/30 11:16:30;;;;;;;5.07;2.72;;;5.20;99.90;;;;;;5014249;28;20029;-70
2023/01/30 11:19:00;;;;;;;5.38;3.03;;;5.40;99.90;;;;;;5014757;28;20033;-70
2023/01/30 11:21:28;;;;;;;6.50;2.80;;;5.50;99.90;;;;;;5013505;28;20482;-70
2023/01/30 11:23:54;;;;;;;5.43;3.10;;;5.60;99.90;;;;;;5014603;28;20093;-71
2023/01/30 11:26:35;;;;;;;8.30;2.47;;;5.60;99.90;;;;;;5013993;28;20054;-71
2023/01/30 11:29:25;;;;;;;5.77;2.90;;;5.60;99.90;;;;;;5014759;28;20543;-70
2023/01/30 11:31:51;;;;;;;4.18;2.53;;;5.80;99.90;;;;;;5015190;28;20034;-70
2023/01/30 11:34:19;;;;;;;8.00;2.13;;;5.80;99.90;;;;;;5015026;28;20040;-70
2023/01/30 11:36:48;;;;;;;7.93;2.97;;;5.90;99.90;;;;;;5013335;28;20052;-70
2023/01/30 11:39:21;;;;;;;4.82;2.28;;;5.90;99.90;;;;;;5014505;28;20021;-70
2023/01/30 11:41:56;;;;;;;5.25;2.83;;;5.90;99.90;;;;;;5013870;28;20020;-71
2023/01/30 11:44:26;;;;;;;13.00;3.20;;;5.80;99.90;;;;;;5014383;28;20076;-71
2023/01/30 11:46:52;;;;;;;8.48;3.35;;;5.90;99.90;;;;;;5013051;28;20030;-71
2023/01/30 11:49:21;;;;;;;11.73;2.13;;;5.90;99.90;;;;;;5014306;28;20037;-71
2023/01/30 11:51:51;;;;;;;5.20;2.30;;;5.80;99.90;;;;;;5013153;28;20026;-71
2023/01/30 11:54:47;;;;;;;22.63;3.20;;;5.80;99.90;;;;;;5014403;28;20018;-71
2023/01/30 11:57:16;;;;;;;6.78;3.30;;;5.90;99.90;;;;;;4953935;29;20534;-70
2023/01/30 12:00:00;;;;;;;4.70;2.42;;;5.90;99.90;;;;;;4938146;29;20110;-71
2023/01/30 12:02:34;;;;;;;4.85;2.72;;;6.00;99.90;;;;;;4954116;29;20035;-71
2023/01/30 12:05:28;;;;;;;7.05;2.72;;;6.10;99.90;;;;;;4953970;29;20027;-70
2023/01/30 12:08:22;;;;;;;12.40;3.40;;;6.20;99.90;;;;;;4938016;29;20075;-71
2023/01/30 12:10:54;;;;;;;7.05;4.22;;;6.40;99.90;;;;;;4953734;29;20078;-71
2023/01/30 12:13:34;;;;;;;12.95;3.10;;;6.70;99.90;;;;;;4937648;29;20128;-71
2023/01/30 12:16:25;;;;;;;6.68;2.20;;;6.80;99.90;;;;;;4953562;29;20443;-71
2023/01/30 12:19:06;;;;;;;8.38;2.60;;;7.00;99.90;;;;;;4953646;29;20399;-71
2023/01/30 12:21:46;;;;;;;7.88;2.40;;;7.20;99.90;;;;;;4953668;28;20074;-71
2023/01/30 12:24:15;;;;;;;6.00;2.00;;;7.30;99.90;;;;;;4953629;29;20027;-71
2023/01/30 12:26:45;;;;;;;10.63;1.95;;;7.30;99.90;;;;;;4953437;29;20027;-71
2023/01/30 12:29:31;;;;;;;9.43;2.17;;;7.30;99.90;;;;;;4953301;29;20037;-71
2023/01/30 12:32:16;;;;;;;12.40;1.88;;;7.20;99.90;;;;;;4953470;29;20045;-71
2023/01/30 12:34:44;;;;;;;17.30;5.18;;;7.10;99.90;;;;;;5049685;23;20046;-72
2023/01/30 12:37:31;;;;;;;11.18;3.33;;;7.10;99.90;;;;;;5033748;28;20017;-73
2023/01/30 12:40:19;;;;;;;35.38;11.43;;;7.20;99.90;;;;;;5033541;28;20053;-73
2023/01/30 12:43:20;;;;;;;12.73;2.67;;;7.10;99.90;;;;;;5032316;28;20029;-73
2023/01/30 12:45:52;;;;;;;14.00;3.45;;;6.90;99.90;;;;;;5032957;28;20041;-73
2023/01/30 12:48:31;;;;;;;17.35;2.83;;;6.90;99.90;;;;;;5033506;28;20022;-73
2023/01/30 12:50:59;;;;;;;7.80;2.30;;;6.90;99.90;;;;;;5032715;28;20099;-73
2023/01/30 12:53:29;;;;;;;8.40;2.33;;;6.90;99.90;;;;;;5032685;28;20116;-73
2023/01/30 12:56:16;;;;;;;11.05;1.95;;;6.90;99.90;;;;;;5032176;28;20026;-73
2023/01/30 12:58:50;;;;;;;12.18;2.22;;;6.90;99.90;;;;;;5032567;28;20053;-73
2023/01/30 13:01:29;;;;;;;11.43;2.42;;;6.90;99.90;;;;;;5033337;28;20028;-73
2023/01/30 13:04:20;;;;;;;11.32;2.22;;;7.00;99.90;;;;;;5032051;28;20492;-73
2023/01/30 13:07:12;;;;;;;18.35;2.22;;;6.90;99.90;;;;;;5013416;28;20128;-74
2023/01/30 13:09:56;;;;;;;10.70;2.42;;;6.90;99.90;;;;;;5031941;28;20033;-74
2023/01/30 13:12:25;;;;;;;12.07;2.58;;;6.90;99.90;;;;;;5031955;28;20079;-74